Reno, NV

9:26 PM PDT on October 21, 2014 (GMT -0700)
Saddlehorn | Change Station
CLOSE
Current Station
Personal Weather Station
Location: Reno, NV
Elevation: 5338 ft
Nearby Weather Stations

Elev 5338 ft 39.39 °N, 119.80 °W | Updated 51 minutes ago

Clear
Clear
44.5 °F
Feels Like 44 °F
N
1.0
Wind Variable Wind from SW
Gusts 7.0 mph

Today
High -- | Low -- °F
--% Chance of Precip.
Yesterday
High -- | Low -- °F
Precip. -- in
7:15 AM 6:11 PM
Waning Crescent, 3% visible
Pressure 30.04 in
Visibility 10.0 miles
Clouds Scattered Clouds 20000 ft
Windchill 44 °F
Dew Point 26 °F
Humidity 49%
Rainfall 0.00 in
Snow Depth 1 in , 0 in
UV 0 out of 12
Pollen 1.90 out of 12
Air Quality Not available.
Flu Activity No Activity
METAR KRNO 220355Z 00000KT 10SM SCT200 11/M02 A3009 RMK AO2 SLP172 T01111017

More Conditions Fewer Conditions

Pressure 30.04 in
Visibility 10.0 miles
Clouds Scattered Clouds 20000 ft
Windchill 44 °F
Dew Point 26 °F
Humidity 49%
Rainfall 0.00 in
Snow Depth 1 in , 0 in
UV 0 out of 12
Pollen 1.90 out of 12
Air Quality Not available.
Flu Activity No Activity
METAR KRNO 220355Z 00000KT 10SM SCT200 11/M02 A3009 RMK AO2 SLP172 T01111017

More Conditions Fewer Conditions

10-Day Weather Forecast

Almanac

Astronomy

Oct. 21, 2014 Rise Set
Actual Time 7:15 AM PDT 6:11 PM PDT
Civil Twilight 6:47 AM PDT 6:38 PM PDT
Nautical Twilight 6:16 AM PDT 7:09 PM PDT
Astronomical Twilight 5:45 AM PDT 7:40 PM PDT
Moon 5:04 AM PDT (10/21) 5:07 PM PDT (10/21)
Length of Visible Light 11h 50m
Length of Day
10h 56m
Tomorrow will be 2m 24s shorter.
Waning Crescent, 3% of the Moon is Illuminated
Oct 22
Waning Crescent
Oct 23
New
Oct 30
First Quarter
Nov 6
Full
Nov 14
Last Quarter

Yesterday's Extremes

State Highs State Lows

Community

WunderPhotos

Upload Photos

1,763,880 photos uploaded!

Nearby

Snow Depth

Station Depth Elevation
Mt. Rose Ski Area 1 in 8850 ft
Marlette Lake 0 in 8000 ft
Big Creek Summit 2 in 8700 ft
Lewis Peak 0 in 7400 ft
Lamance Creek 1 in 6000 ft

Earthquake Activity

City Distance Mag. Time & Date
Mammoth Lakes, California 141 miles 3.0 11:10 PM PDT
2014-10-20
Dixon Lane-Meadow Creek, California 143 miles 2.6 5:32 PM PDT
2014-10-18
Minimum magnitude displayed is 2.5.

Coastal Water Temperatures

Place Temperature
No Stations Reporting

Nearby Weather Stations